This is the latest recevied weather packets stored in our database for station/object KK7RJD. If no packets are shown the sender has not sent any weather packets the latest 10 day(s).
| Time | Temp. | Humidity | Pressure | Rain* | Wind** | Luminosity | Snow |
|---|---|---|---|---|---|---|---|
| 1778257028 | 12.78° C | 79% | 1015.9 hPa | 0 mm | - | 613 W/m² | - |
| 1778256725 | 12.22° C | 83% | 1016 hPa | 0 mm | - | 572 W/m² | - |
| 1778256423 | 11.67° C | 85% | 1016 hPa | 0 mm | - | 522 W/m² | - |
| 1778255514 | 10.56° C | 89% | 1016.2 hPa | 0 mm | - | 314 W/m² | - |
| 1778254908 | 8.89° C | 94% | 1016.4 hPa | 0 mm | - | 535 W/m² | - |
| 1778254604 | 8.89° C | 94% | 1016.5 hPa | 0 mm | - | 301 W/m² | - |
| 1778253998 | 7.78° C | 94% | 1016.5 hPa | 0 mm | - | 287 W/m² | - |
| 1778253693 | 7.78° C | 94% | 1016.7 hPa | 0 mm | - | 238 W/m² | - |
| 1778253390 | 7.22° C | 95% | 1016.7 hPa | 0 mm | - | 202 W/m² | - |
| 1778253087 | 7.78° C | 95% | 1016.8 hPa | 0 mm | - | 172 W/m² | - |
| 1778252784 | 7.22° C | 95% | 1016.6 hPa | 0 mm | - | 217 W/m² | - |
| 1778252481 | 7.22° C | 95% | 1016.7 hPa | 0 mm | - | 157 W/m² | - |
| 1778252177 | 7.22° C | 95% | 1016.8 hPa | 0 mm | - | 156 W/m² | - |
| 1778251268 | 6.67° C | 95% | 1016.5 hPa | 0 mm | - | 183 W/m² | - |
| 1778250966 | 6.67° C | 95% | 1016.6 hPa | 0 mm | - | 172 W/m² | - |
| 1778250662 | 6.11° C | 95% | 1016.5 hPa | 0 mm | - | 183 W/m² | - |
| 1778250359 | 6.11° C | 94% | 1016.5 hPa | 0 mm | - | 153 W/m² | - |
| 1778250055 | 6.11° C | 94% | 1016.6 hPa | 0 mm | - | 164 W/m² | - |
| 1778249752 | 6.11° C | 94% | 1016.6 hPa | 0 mm | - | 139 W/m² | - |
| 1778249450 | 5.56° C | 94% | 1016.6 hPa | 0 mm | - | 132 W/m² | - |
| 1778249147 | 5.56° C | 93% | 1016.7 hPa | 0 mm | - | 110 W/m² | - |
| 1778248843 | 6.11° C | 92% | 1016.7 hPa | 0 mm | - | 131 W/m² | - |
| 1778248539 | 6.11° C | 92% | 1016.5 hPa | 0 mm | - | 121 W/m² | - |
| 1778248235 | 6.11° C | 92% | 1016.6 hPa | 0 mm | - | 132 W/m² | - |
| 1778247932 | 6.67° C | 92% | 1016.4 hPa | 0 mm | - | 101 W/m² | - |
* Rain latest hour (hover to see other rain measurements)
** Current wind speed in m/s (hover to see current wind gust speed)